sensor_id;sensor_type;location;lat;lon;timestamp;P1;durP1;ratioP1;P2;durP2;ratioP2
18776;SDS011;9517;51.174;4.160;2023-08-08T00:01:01;10.43;;;2.47;;
18776;SDS011;9517;51.174;4.160;2023-08-08T00:03:28;10.40;;;2.70;;
18776;SDS011;9517;51.174;4.160;2023-08-08T00:05:55;14.03;;;3.37;;
18776;SDS011;9517;51.174;4.160;2023-08-08T00:08:23;11.43;;;2.67;;
18776;SDS011;9517;51.174;4.160;2023-08-08T00:10:51;9.47;;;2.67;;
18776;SDS011;9517;51.174;4.160;2023-08-08T00:13:18;11.73;;;2.77;;
18776;SDS011;9517;51.174;4.160;2023-08-08T00:15:48;15.63;;;3.93;;
18776;SDS011;9517;51.174;4.160;2023-08-08T00:18:15;10.83;;;3.00;;
18776;SDS011;9517;51.174;4.160;2023-08-08T00:20:42;13.37;;;2.93;;
18776;SDS011;9517;51.174;4.160;2023-08-08T00:23:09;12.90;;;3.10;;
18776;SDS011;9517;51.174;4.160;2023-08-08T00:25:37;17.40;;;3.40;;
18776;SDS011;9517;51.174;4.160;2023-08-08T00:28:06;18.50;;;4.50;;
18776;SDS011;9517;51.174;4.160;2023-08-08T00:30:33;19.97;;;3.37;;
18776;SDS011;9517;51.174;4.160;2023-08-08T00:33:00;27.90;;;4.53;;
18776;SDS011;9517;51.174;4.160;2023-08-08T00:35:27;24.23;;;3.83;;
18776;SDS011;9517;51.174;4.160;2023-08-08T00:37:54;16.83;;;3.30;;
18776;SDS011;9517;51.174;4.160;2023-08-08T00:40:21;12.57;;;3.00;;
18776;SDS011;9517;51.174;4.160;2023-08-08T00:42:48;11.87;;;3.00;;
18776;SDS011;9517;51.174;4.160;2023-08-08T00:45:17;11.53;;;3.17;;
18776;SDS011;9517;51.174;4.160;2023-08-08T00:47:44;13.60;;;3.10;;
18776;SDS011;9517;51.174;4.160;2023-08-08T00:50:11;15.43;;;3.70;;
18776;SDS011;9517;51.174;4.160;2023-08-08T00:52:39;14.23;;;3.50;;
18776;SDS011;9517;51.174;4.160;2023-08-08T00:55:08;10.90;;;3.40;;
18776;SDS011;9517;51.174;4.160;2023-08-08T00:57:35;11.30;;;3.13;;
18776;SDS011;9517;51.174;4.160;2023-08-08T01:00:04;13.73;;;3.30;;
18776;SDS011;9517;51.174;4.160;2023-08-08T01:02:34;13.93;;;3.27;;
18776;SDS011;9517;51.174;4.160;2023-08-08T01:05:02;17.77;;;4.30;;
18776;SDS011;9517;51.174;4.160;2023-08-08T01:07:30;17.43;;;3.83;;
18776;SDS011;9517;51.174;4.160;2023-08-08T01:10:03;14.30;;;3.50;;
18776;SDS011;9517;51.174;4.160;2023-08-08T01:12:34;15.63;;;3.70;;
18776;SDS011;9517;51.174;4.160;2023-08-08T01:15:06;14.33;;;3.43;;
18776;SDS011;9517;51.174;4.160;2023-08-08T01:17:36;10.30;;;3.17;;
18776;SDS011;9517;51.174;4.160;2023-08-08T01:20:04;14.37;;;3.60;;
18776;SDS011;9517;51.174;4.160;2023-08-08T01:22:35;9.50;;;3.10;;
18776;SDS011;9517;51.174;4.160;2023-08-08T01:25:07;18.17;;;3.83;;
18776;SDS011;9517;51.174;4.160;2023-08-08T01:27:35;11.20;;;3.10;;
18776;SDS011;9517;51.174;4.160;2023-08-08T01:30:03;15.57;;;3.53;;
18776;SDS011;9517;51.174;4.160;2023-08-08T01:32:30;19.57;;;3.63;;
18776;SDS011;9517;51.174;4.160;2023-08-08T01:34:57;10.30;;;3.63;;
18776;SDS011;9517;51.174;4.160;2023-08-08T01:37:27;12.93;;;3.47;;
18776;SDS011;9517;51.174;4.160;2023-08-08T01:39:59;11.70;;;3.23;;
18776;SDS011;9517;51.174;4.160;2023-08-08T01:42:28;17.90;;;4.33;;
18776;SDS011;9517;51.174;4.160;2023-08-08T01:44:56;11.67;;;3.70;;
18776;SDS011;9517;51.174;4.160;2023-08-08T01:47:23;16.10;;;3.77;;
18776;SDS011;9517;51.174;4.160;2023-08-08T01:49:50;15.00;;;4.00;;
18776;SDS011;9517;51.174;4.160;2023-08-08T01:52:17;22.73;;;4.37;;
18776;SDS011;9517;51.174;4.160;2023-08-08T01:54:44;12.27;;;3.33;;
18776;SDS011;9517;51.174;4.160;2023-08-08T01:57:12;13.17;;;3.80;;
18776;SDS011;9517;51.174;4.160;2023-08-08T01:59:40;21.10;;;4.33;;
18776;SDS011;9517;51.174;4.160;2023-08-08T02:02:07;15.60;;;3.90;;
18776;SDS011;9517;51.174;4.160;2023-08-08T02:04:34;14.37;;;3.63;;
18776;SDS011;9517;51.174;4.160;2023-08-08T02:07:01;13.50;;;3.60;;
18776;SDS011;9517;51.174;4.160;2023-08-08T02:09:28;17.80;;;3.80;;
18776;SDS011;9517;51.174;4.160;2023-08-08T02:11:55;16.23;;;3.97;;
18776;SDS011;9517;51.174;4.160;2023-08-08T02:14:22;10.73;;;3.63;;
18776;SDS011;9517;51.174;4.160;2023-08-08T02:16:51;21.07;;;4.40;;
18776;SDS011;9517;51.174;4.160;2023-08-08T02:19:18;15.20;;;4.17;;
18776;SDS011;9517;51.174;4.160;2023-08-08T02:21:45;16.27;;;4.23;;
18776;SDS011;9517;51.174;4.160;2023-08-08T02:24:12;19.37;;;4.93;;
18776;SDS011;9517;51.174;4.160;2023-08-08T02:26:39;14.27;;;4.20;;
18776;SDS011;9517;51.174;4.160;2023-08-08T02:29:06;15.87;;;4.40;;
18776;SDS011;9517;51.174;4.160;2023-08-08T02:31:33;19.87;;;4.40;;
18776;SDS011;9517;51.174;4.160;2023-08-08T02:34:01;14.50;;;4.10;;
18776;SDS011;9517;51.174;4.160;2023-08-08T02:36:28;17.63;;;4.27;;
18776;SDS011;9517;51.174;4.160;2023-08-08T02:38:55;14.33;;;4.23;;
18776;SDS011;9517;51.174;4.160;2023-08-08T02:41:22;15.73;;;4.17;;
18776;SDS011;9517;51.174;4.160;2023-08-08T02:43:49;13.30;;;4.40;;
18776;SDS011;9517;51.174;4.160;2023-08-08T02:46:16;14.43;;;3.90;;
18776;SDS011;9517;51.174;4.160;2023-08-08T02:48:43;16.17;;;4.27;;
18776;SDS011;9517;51.174;4.160;2023-08-08T02:51:12;14.33;;;4.70;;
18776;SDS011;9517;51.174;4.160;2023-08-08T02:53:39;18.60;;;4.27;;
18776;SDS011;9517;51.174;4.160;2023-08-08T02:56:06;18.40;;;4.83;;
18776;SDS011;9517;51.174;4.160;2023-08-08T02:58:33;13.63;;;4.40;;
18776;SDS011;9517;51.174;4.160;2023-08-08T03:01:00;16.93;;;4.77;;
18776;SDS011;9517;51.174;4.160;2023-08-08T03:03:27;18.93;;;4.67;;
18776;SDS011;9517;51.174;4.160;2023-08-08T03:05:54;17.10;;;3.70;;
18776;SDS011;9517;51.174;4.160;2023-08-08T03:08:23;20.53;;;4.63;;
18776;SDS011;9517;51.174;4.160;2023-08-08T03:10:50;19.57;;;4.20;;
18776;SDS011;9517;51.174;4.160;2023-08-08T03:13:17;20.47;;;4.13;;
18776;SDS011;9517;51.174;4.160;2023-08-08T03:15:47;17.97;;;4.10;;
18776;SDS011;9517;51.174;4.160;2023-08-08T03:18:14;17.03;;;4.73;;
18776;SDS011;9517;51.174;4.160;2023-08-08T03:20:41;16.60;;;4.43;;
18776;SDS011;9517;51.174;4.160;2023-08-08T03:23:09;19.17;;;4.60;;
18776;SDS011;9517;51.174;4.160;2023-08-08T03:25:37;16.53;;;4.20;;
18776;SDS011;9517;51.174;4.160;2023-08-08T03:28:04;15.57;;;3.80;;
18776;SDS011;9517;51.174;4.160;2023-08-08T03:30:31;20.43;;;4.83;;
18776;SDS011;9517;51.174;4.160;2023-08-08T03:32:58;16.37;;;4.60;;
18776;SDS011;9517;51.174;4.160;2023-08-08T03:35:25;22.00;;;4.40;;
18776;SDS011;9517;51.174;4.160;2023-08-08T03:37:52;11.60;;;4.30;;
18776;SDS011;9517;51.174;4.160;2023-08-08T03:40:19;14.80;;;4.80;;
18776;SDS011;9517;51.174;4.160;2023-08-08T03:42:48;21.20;;;4.50;;
18776;SDS011;9517;51.174;4.160;2023-08-08T03:45:15;19.27;;;4.63;;
18776;SDS011;9517;51.174;4.160;2023-08-08T03:47:42;23.37;;;4.77;;
18776;SDS011;9517;51.174;4.160;2023-08-08T03:50:09;17.00;;;5.17;;
18776;SDS011;9517;51.174;4.160;2023-08-08T03:52:37;15.27;;;5.10;;
18776;SDS011;9517;51.174;4.160;2023-08-08T03:55:04;14.47;;;4.70;;
18776;SDS011;9517;51.174;4.160;2023-08-08T03:57:32;16.83;;;4.43;;
18776;SDS011;9517;51.174;4.160;2023-08-08T04:00:00;14.33;;;4.53;;
18776;SDS011;9517;51.174;4.160;2023-08-08T04:02:27;16.10;;;4.50;;
18776;SDS011;9517;51.174;4.160;2023-08-08T04:04:54;19.63;;;5.27;;
18776;SDS011;9517;51.174;4.160;2023-08-08T04:07:21;15.27;;;4.50;;
18776;SDS011;9517;51.174;4.160;2023-08-08T04:09:48;19.40;;;4.57;;
18776;SDS011;9517;51.174;4.160;2023-08-08T04:12:15;25.27;;;4.83;;
18776;SDS011;9517;51.174;4.160;2023-08-08T04:14:43;23.00;;;4.93;;
18776;SDS011;9517;51.174;4.160;2023-08-08T04:17:11;25.17;;;5.57;;
18776;SDS011;9517;51.174;4.160;2023-08-08T04:19:38;17.60;;;4.47;;
18776;SDS011;9517;51.174;4.160;2023-08-08T04:22:05;17.00;;;4.97;;
18776;SDS011;9517;51.174;4.160;2023-08-08T04:24:32;19.03;;;5.10;;
18776;SDS011;9517;51.174;4.160;2023-08-08T04:26:59;22.07;;;5.40;;
18776;SDS011;9517;51.174;4.160;2023-08-08T04:29:26;19.23;;;5.43;;
18776;SDS011;9517;51.174;4.160;2023-08-08T04:31:53;20.67;;;5.27;;
18776;SDS011;9517;51.174;4.160;2023-08-08T04:34:22;16.30;;;5.17;;
18776;SDS011;9517;51.174;4.160;2023-08-08T04:36:49;16.13;;;5.13;;
18776;SDS011;9517;51.174;4.160;2023-08-08T04:39:16;20.97;;;4.57;;
18776;SDS011;9517;51.174;4.160;2023-08-08T04:41:43;15.67;;;4.90;;
18776;SDS011;9517;51.174;4.160;2023-08-08T04:44:10;15.27;;;5.17;;
18776;SDS011;9517;51.174;4.160;2023-08-08T04:46:37;25.93;;;5.23;;
18776;SDS011;9517;51.174;4.160;2023-08-08T04:49:04;15.47;;;5.17;;
18776;SDS011;9517;51.174;4.160;2023-08-08T04:51:33;14.90;;;4.93;;
18776;SDS011;9517;51.174;4.160;2023-08-08T04:54:00;19.23;;;4.43;;
18776;SDS011;9517;51.174;4.160;2023-08-08T04:56:27;16.33;;;4.80;;
18776;SDS011;9517;51.174;4.160;2023-08-08T04:58:54;16.47;;;4.70;;
18776;SDS011;9517;51.174;4.160;2023-08-08T05:01:21;17.10;;;4.80;;
18776;SDS011;9517;51.174;4.160;2023-08-08T05:03:48;19.10;;;5.00;;
18776;SDS011;9517;51.174;4.160;2023-08-08T05:06:16;19.23;;;4.97;;
18776;SDS011;9517;51.174;4.160;2023-08-08T05:08:44;21.30;;;4.47;;
18776;SDS011;9517;51.174;4.160;2023-08-08T05:11:11;13.73;;;4.93;;
18776;SDS011;9517;51.174;4.160;2023-08-08T05:13:38;18.00;;;4.63;;
18776;SDS011;9517;51.174;4.160;2023-08-08T05:16:05;16.90;;;4.93;;
18776;SDS011;9517;51.174;4.160;2023-08-08T05:18:35;14.67;;;4.30;;
18776;SDS011;9517;51.174;4.160;2023-08-08T05:21:02;19.60;;;4.87;;
18776;SDS011;9517;51.174;4.160;2023-08-08T05:23:29;15.13;;;4.50;;
18776;SDS011;9517;51.174;4.160;2023-08-08T05:25:58;22.07;;;6.07;;
18776;SDS011;9517;51.174;4.160;2023-08-08T05:28:25;18.77;;;5.17;;
18776;SDS011;9517;51.174;4.160;2023-08-08T05:30:52;15.97;;;5.53;;
18776;SDS011;9517;51.174;4.160;2023-08-08T05:33:22;19.97;;;4.97;;
18776;SDS011;9517;51.174;4.160;2023-08-08T05:35:49;19.53;;;4.97;;
18776;SDS011;9517;51.174;4.160;2023-08-08T05:38:16;19.10;;;4.97;;
18776;SDS011;9517;51.174;4.160;2023-08-08T05:40:43;20.63;;;4.63;;
18776;SDS011;9517;51.174;4.160;2023-08-08T05:43:12;15.90;;;4.73;;
18776;SDS011;9517;51.174;4.160;2023-08-08T05:45:42;20.83;;;5.00;;
18776;SDS011;9517;51.174;4.160;2023-08-08T05:48:09;16.10;;;4.90;;
18776;SDS011;9517;51.174;4.160;2023-08-08T05:50:37;15.90;;;5.03;;
18776;SDS011;9517;51.174;4.160;2023-08-08T05:53:04;17.27;;;5.43;;
18776;SDS011;9517;51.174;4.160;2023-08-08T05:55:31;20.90;;;5.10;;
18776;SDS011;9517;51.174;4.160;2023-08-08T05:58:02;17.00;;;5.20;;
18776;SDS011;9517;51.174;4.160;2023-08-08T06:00:31;23.00;;;5.03;;
18776;SDS011;9517;51.174;4.160;2023-08-08T06:02:58;16.60;;;5.30;;
18776;SDS011;9517;51.174;4.160;2023-08-08T06:05:25;17.57;;;4.87;;
18776;SDS011;9517;51.174;4.160;2023-08-08T06:07:53;21.13;;;5.00;;
18776;SDS011;9517;51.174;4.160;2023-08-08T06:10:21;17.03;;;5.13;;
18776;SDS011;9517;51.174;4.160;2023-08-08T06:12:50;14.87;;;4.80;;
18776;SDS011;9517;51.174;4.160;2023-08-08T06:15:17;20.53;;;4.37;;
18776;SDS011;9517;51.174;4.160;2023-08-08T06:17:46;18.40;;;4.57;;
18776;SDS011;9517;51.174;4.160;2023-08-08T06:20:13;16.73;;;4.83;;
18776;SDS011;9517;51.174;4.160;2023-08-08T06:22:41;15.50;;;4.60;;
18776;SDS011;9517;51.174;4.160;2023-08-08T06:25:08;16.23;;;4.63;;
18776;SDS011;9517;51.174;4.160;2023-08-08T06:27:36;19.90;;;4.33;;
18776;SDS011;9517;51.174;4.160;2023-08-08T06:30:03;12.50;;;3.80;;
18776;SDS011;9517;51.174;4.160;2023-08-08T06:32:32;14.20;;;4.00;;
18776;SDS011;9517;51.174;4.160;2023-08-08T06:35:00;12.73;;;3.37;;
18776;SDS011;9517;51.174;4.160;2023-08-08T06:37:27;18.67;;;4.13;;
18776;SDS011;9517;51.174;4.160;2023-08-08T06:39:54;12.97;;;3.40;;
18776;SDS011;9517;51.174;4.160;2023-08-08T06:42:21;14.07;;;3.70;;
18776;SDS011;9517;51.174;4.160;2023-08-08T06:44:48;10.93;;;3.53;;
18776;SDS011;9517;51.174;4.160;2023-08-08T06:47:15;19.23;;;4.40;;
18776;SDS011;9517;51.174;4.160;2023-08-08T06:49:42;18.43;;;4.47;;
18776;SDS011;9517;51.174;4.160;2023-08-08T06:52:11;13.63;;;3.77;;
18776;SDS011;9517;51.174;4.160;2023-08-08T06:54:38;12.27;;;3.70;;
18776;SDS011;9517;51.174;4.160;2023-08-08T06:57:05;10.30;;;3.20;;
18776;SDS011;9517;51.174;4.160;2023-08-08T06:59:32;14.67;;;3.77;;
18776;SDS011;9517;51.174;4.160;2023-08-08T07:01:59;14.43;;;3.63;;
18776;SDS011;9517;51.174;4.160;2023-08-08T07:04:26;12.33;;;3.63;;
18776;SDS011;9517;51.174;4.160;2023-08-08T07:06:53;10.93;;;3.33;;
18776;SDS011;9517;51.174;4.160;2023-08-08T07:09:22;13.63;;;3.57;;
18776;SDS011;9517;51.174;4.160;2023-08-08T07:11:49;15.80;;;4.00;;
18776;SDS011;9517;51.174;4.160;2023-08-08T07:14:16;13.00;;;3.90;;
18776;SDS011;9517;51.174;4.160;2023-08-08T07:16:44;16.57;;;4.33;;
18776;SDS011;9517;51.174;4.160;2023-08-08T07:19:11;15.60;;;4.30;;
18776;SDS011;9517;51.174;4.160;2023-08-08T07:21:38;12.63;;;3.53;;
18776;SDS011;9517;51.174;4.160;2023-08-08T07:24:06;16.70;;;3.73;;
18776;SDS011;9517;51.174;4.160;2023-08-08T07:26:36;12.23;;;3.67;;
18776;SDS011;9517;51.174;4.160;2023-08-08T07:29:03;15.50;;;3.90;;
18776;SDS011;9517;51.174;4.160;2023-08-08T07:31:31;15.10;;;4.20;;
18776;SDS011;9517;51.174;4.160;2023-08-08T07:33:58;14.30;;;4.20;;
18776;SDS011;9517;51.174;4.160;2023-08-08T07:36:25;9.57;;;3.17;;
18776;SDS011;9517;51.174;4.160;2023-08-08T07:38:52;15.17;;;3.77;;
18776;SDS011;9517;51.174;4.160;2023-08-08T07:41:21;12.60;;;3.07;;
18776;SDS011;9517;51.174;4.160;2023-08-08T07:43:50;10.20;;;3.13;;
18776;SDS011;9517;51.174;4.160;2023-08-08T07:46:17;11.80;;;3.40;;
18776;SDS011;9517;51.174;4.160;2023-08-08T07:48:44;12.20;;;3.87;;
18776;SDS011;9517;51.174;4.160;2023-08-08T07:51:12;13.20;;;3.10;;
18776;SDS011;9517;51.174;4.160;2023-08-08T07:53:39;12.67;;;3.30;;
18776;SDS011;9517;51.174;4.160;2023-08-08T07:56:06;10.47;;;3.30;;
18776;SDS011;9517;51.174;4.160;2023-08-08T07:58:33;11.23;;;3.40;;
18776;SDS011;9517;51.174;4.160;2023-08-08T08:01:01;12.43;;;3.40;;
18776;SDS011;9517;51.174;4.160;2023-08-08T08:03:29;10.23;;;3.17;;
18776;SDS011;9517;51.174;4.160;2023-08-08T08:05:56;16.30;;;3.50;;
18776;SDS011;9517;51.174;4.160;2023-08-08T08:08:23;9.10;;;2.57;;
18776;SDS011;9517;51.174;4.160;2023-08-08T08:10:50;12.33;;;3.37;;
18776;SDS011;9517;51.174;4.160;2023-08-08T08:13:17;11.80;;;3.40;;
18776;SDS011;9517;51.174;4.160;2023-08-08T08:15:44;12.53;;;3.00;;
18776;SDS011;9517;51.174;4.160;2023-08-08T08:18:13;13.70;;;3.27;;
18776;SDS011;9517;51.174;4.160;2023-08-08T08:20:42;10.97;;;2.93;;
18776;SDS011;9517;51.174;4.160;2023-08-08T08:23:09;9.23;;;2.80;;
18776;SDS011;9517;51.174;4.160;2023-08-08T08:25:36;10.53;;;3.13;;
18776;SDS011;9517;51.174;4.160;2023-08-08T08:28:03;13.80;;;3.30;;
18776;SDS011;9517;51.174;4.160;2023-08-08T08:30:31;12.33;;;3.20;;
18776;SDS011;9517;51.174;4.160;2023-08-08T08:32:58;8.80;;;2.83;;
18776;SDS011;9517;51.174;4.160;2023-08-08T08:35:27;10.63;;;3.50;;
18776;SDS011;9517;51.174;4.160;2023-08-08T08:37:54;11.10;;;3.07;;
18776;SDS011;9517;51.174;4.160;2023-08-08T08:40:21;9.03;;;2.90;;
18776;SDS011;9517;51.174;4.160;2023-08-08T08:42:49;15.53;;;4.07;;
18776;SDS011;9517;51.174;4.160;2023-08-08T08:45:16;9.40;;;3.10;;
18776;SDS011;9517;51.174;4.160;2023-08-08T08:47:47;14.33;;;3.73;;
18776;SDS011;9517;51.174;4.160;2023-08-08T08:50:15;14.23;;;4.27;;
18776;SDS011;9517;51.174;4.160;2023-08-08T08:52:45;8.70;;;3.10;;
18776;SDS011;9517;51.174;4.160;2023-08-08T08:55:13;10.57;;;3.20;;
18776;SDS011;9517;51.174;4.160;2023-08-08T08:57:40;11.57;;;3.30;;
18776;SDS011;9517;51.174;4.160;2023-08-08T09:00:10;14.03;;;3.43;;
18776;SDS011;9517;51.174;4.160;2023-08-08T09:02:37;13.57;;;3.57;;
18776;SDS011;9517;51.174;4.160;2023-08-08T09:05:05;12.70;;;3.23;;
18776;SDS011;9517;51.174;4.160;2023-08-08T09:07:32;14.20;;;3.30;;
18776;SDS011;9517;51.174;4.160;2023-08-08T09:10:01;12.40;;;3.13;;
18776;SDS011;9517;51.174;4.160;2023-08-08T09:12:29;13.17;;;4.03;;
18776;SDS011;9517;51.174;4.160;2023-08-08T09:14:57;11.13;;;2.97;;
18776;SDS011;9517;51.174;4.160;2023-08-08T09:17:25;12.70;;;2.43;;
18776;SDS011;9517;51.174;4.160;2023-08-08T09:19:53;11.13;;;2.63;;
18776;SDS011;9517;51.174;4.160;2023-08-08T09:22:20;9.23;;;2.90;;
18776;SDS011;9517;51.174;4.160;2023-08-08T09:24:49;7.83;;;2.57;;
18776;SDS011;9517;51.174;4.160;2023-08-08T09:27:17;9.23;;;3.13;;
18776;SDS011;9517;51.174;4.160;2023-08-08T09:29:45;12.43;;;3.20;;
18776;SDS011;9517;51.174;4.160;2023-08-08T09:32:12;10.53;;;2.60;;
18776;SDS011;9517;51.174;4.160;2023-08-08T09:34:41;8.07;;;2.40;;
18776;SDS011;9517;51.174;4.160;2023-08-08T09:37:08;9.63;;;2.10;;
18776;SDS011;9517;51.174;4.160;2023-08-08T09:39:36;7.73;;;2.10;;
18776;SDS011;9517;51.174;4.160;2023-08-08T09:42:04;7.40;;;2.17;;
18776;SDS011;9517;51.174;4.160;2023-08-08T09:44:32;7.27;;;1.70;;
18776;SDS011;9517;51.174;4.160;2023-08-08T09:47:00;5.80;;;1.67;;
18776;SDS011;9517;51.174;4.160;2023-08-08T09:49:27;7.23;;;1.80;;
18776;SDS011;9517;51.174;4.160;2023-08-08T09:51:57;5.23;;;1.70;;
18776;SDS011;9517;51.174;4.160;2023-08-08T09:54:25;6.20;;;1.63;;
18776;SDS011;9517;51.174;4.160;2023-08-08T09:56:53;4.90;;;1.40;;
18776;SDS011;9517;51.174;4.160;2023-08-08T09:59:20;7.63;;;1.60;;
18776;SDS011;9517;51.174;4.160;2023-08-08T10:01:49;5.83;;;1.30;;
18776;SDS011;9517;51.174;4.160;2023-08-08T10:04:18;8.10;;;1.60;;
18776;SDS011;9517;51.174;4.160;2023-08-08T10:06:46;6.97;;;1.73;;
18776;SDS011;9517;51.174;4.160;2023-08-08T10:09:13;4.10;;;1.30;;
18776;SDS011;9517;51.174;4.160;2023-08-08T10:11:40;4.57;;;1.40;;
18776;SDS011;9517;51.174;4.160;2023-08-08T10:14:09;6.43;;;1.40;;
18776;SDS011;9517;51.174;4.160;2023-08-08T10:16:37;7.17;;;1.40;;
18776;SDS011;9517;51.174;4.160;2023-08-08T10:19:05;6.23;;;1.47;;
18776;SDS011;9517;51.174;4.160;2023-08-08T10:21:34;3.50;;;1.23;;
18776;SDS011;9517;51.174;4.160;2023-08-08T10:24:02;4.47;;;1.23;;
18776;SDS011;9517;51.174;4.160;2023-08-08T10:26:31;10.20;;;1.53;;
18776;SDS011;9517;51.174;4.160;2023-08-08T10:28:59;17.67;;;3.03;;
18776;SDS011;9517;51.174;4.160;2023-08-08T10:31:32;8.27;;;1.90;;
18776;SDS011;9517;51.174;4.160;2023-08-08T10:34:01;13.37;;;2.60;;
18776;SDS011;9517;51.174;4.160;2023-08-08T10:39:17;19.27;;;2.57;;
18776;SDS011;9517;51.174;4.160;2023-08-08T10:41:46;9.07;;;2.37;;
18776;SDS011;9517;51.174;4.160;2023-08-08T10:44:21;11.47;;;2.00;;
18776;SDS011;9517;51.174;4.160;2023-08-08T10:46:49;14.23;;;2.30;;
18776;SDS011;9517;51.174;4.160;2023-08-08T10:49:17;3.63;;;1.20;;
18776;SDS011;9517;51.174;4.160;2023-08-08T10:51:45;5.67;;;1.50;;
18776;SDS011;9517;51.174;4.160;2023-08-08T10:54:15;7.03;;;1.90;;
18776;SDS011;9517;51.174;4.160;2023-08-08T10:56:48;5.57;;;1.57;;
18776;SDS011;9517;51.174;4.160;2023-08-08T10:59:17;4.13;;;1.20;;
18776;SDS011;9517;51.174;4.160;2023-08-08T11:01:46;5.13;;;1.50;;
18776;SDS011;9517;51.174;4.160;2023-08-08T11:04:18;5.73;;;1.67;;
18776;SDS011;9517;51.174;4.160;2023-08-08T11:06:46;6.77;;;1.50;;
18776;SDS011;9517;51.174;4.160;2023-08-08T11:09:16;6.43;;;1.40;;
18776;SDS011;9517;51.174;4.160;2023-08-08T11:11:44;4.50;;;1.40;;
18776;SDS011;9517;51.174;4.160;2023-08-08T11:14:13;5.20;;;1.70;;
18776;SDS011;9517;51.174;4.160;2023-08-08T11:16:41;5.77;;;1.40;;
18776;SDS011;9517;51.174;4.160;2023-08-08T11:19:10;7.50;;;1.97;;
18776;SDS011;9517;51.174;4.160;2023-08-08T11:21:39;7.77;;;2.03;;
18776;SDS011;9517;51.174;4.160;2023-08-08T11:24:07;8.07;;;2.10;;
18776;SDS011;9517;51.174;4.160;2023-08-08T11:26:37;10.80;;;1.90;;
18776;SDS011;9517;51.174;4.160;2023-08-08T11:29:06;7.03;;;2.27;;
18776;SDS011;9517;51.174;4.160;2023-08-08T11:31:33;7.93;;;2.00;;
18776;SDS011;9517;51.174;4.160;2023-08-08T11:34:01;8.43;;;2.00;;
18776;SDS011;9517;51.174;4.160;2023-08-08T11:36:29;7.43;;;1.90;;
18776;SDS011;9517;51.174;4.160;2023-08-08T11:38:57;8.53;;;2.10;;
18776;SDS011;9517;51.174;4.160;2023-08-08T11:41:26;6.00;;;2.03;;
18776;SDS011;9517;51.174;4.160;2023-08-08T11:43:54;7.97;;;1.97;;
18776;SDS011;9517;51.174;4.160;2023-08-08T11:46:22;6.37;;;1.80;;
18776;SDS011;9517;51.174;4.160;2023-08-08T11:48:50;4.80;;;1.50;;
18776;SDS011;9517;51.174;4.160;2023-08-08T11:51:18;5.93;;;2.10;;
18776;SDS011;9517;51.174;4.160;2023-08-08T11:53:48;7.77;;;2.03;;
18776;SDS011;9517;51.174;4.160;2023-08-08T11:56:17;5.57;;;2.20;;
18776;SDS011;9517;51.174;4.160;2023-08-08T11:58:46;5.20;;;1.73;;
18776;SDS011;9517;51.174;4.160;2023-08-08T12:01:16;7.57;;;2.13;;
18776;SDS011;9517;51.174;4.160;2023-08-08T12:03:46;10.10;;;2.47;;
18776;SDS011;9517;51.174;4.160;2023-08-08T12:06:14;5.00;;;1.90;;
18776;SDS011;9517;51.174;4.160;2023-08-08T12:08:42;8.63;;;2.93;;
18776;SDS011;9517;51.174;4.160;2023-08-08T12:11:09;7.00;;;2.40;;
18776;SDS011;9517;51.174;4.160;2023-08-08T12:13:38;4.93;;;1.80;;
18776;SDS011;9517;51.174;4.160;2023-08-08T12:16:07;5.87;;;2.03;;
18776;SDS011;9517;51.174;4.160;2023-08-08T12:18:37;7.07;;;2.40;;
18776;SDS011;9517;51.174;4.160;2023-08-08T12:21:05;6.50;;;2.30;;
18776;SDS011;9517;51.174;4.160;2023-08-08T12:23:32;7.77;;;2.50;;
18776;SDS011;9517;51.174;4.160;2023-08-08T12:26:02;6.50;;;2.57;;
18776;SDS011;9517;51.174;4.160;2023-08-08T12:28:30;7.33;;;2.47;;
18776;SDS011;9517;51.174;4.160;2023-08-08T12:30:58;5.00;;;1.70;;
18776;SDS011;9517;51.174;4.160;2023-08-08T12:33:25;6.23;;;1.90;;
18776;SDS011;9517;51.174;4.160;2023-08-08T12:35:54;5.23;;;2.03;;
18776;SDS011;9517;51.174;4.160;2023-08-08T12:38:21;6.73;;;1.70;;
18776;SDS011;9517;51.174;4.160;2023-08-08T12:40:48;6.53;;;1.83;;
18776;SDS011;9517;51.174;4.160;2023-08-08T12:43:15;5.17;;;1.77;;
18776;SDS011;9517;51.174;4.160;2023-08-08T12:45:43;3.53;;;1.70;;
18776;SDS011;9517;51.174;4.160;2023-08-08T12:48:10;8.43;;;2.00;;
18776;SDS011;9517;51.174;4.160;2023-08-08T12:50:37;5.57;;;1.90;;
18776;SDS011;9517;51.174;4.160;2023-08-08T12:53:07;8.57;;;2.40;;
18776;SDS011;9517;51.174;4.160;2023-08-08T12:55:34;6.33;;;2.03;;
18776;SDS011;9517;51.174;4.160;2023-08-08T12:58:02;5.00;;;1.83;;
18776;SDS011;9517;51.174;4.160;2023-08-08T13:00:30;4.07;;;1.50;;
18776;SDS011;9517;51.174;4.160;2023-08-08T13:02:57;5.37;;;1.57;;
18776;SDS011;9517;51.174;4.160;2023-08-08T13:05:24;3.33;;;1.10;;
18776;SDS011;9517;51.174;4.160;2023-08-08T13:07:52;6.00;;;1.50;;
18776;SDS011;9517;51.174;4.160;2023-08-08T13:10:20;5.77;;;1.37;;
18776;SDS011;9517;51.174;4.160;2023-08-08T13:12:47;2.07;;;0.80;;
18776;SDS011;9517;51.174;4.160;2023-08-08T13:15:14;6.77;;;1.20;;
18776;SDS011;9517;51.174;4.160;2023-08-08T13:17:41;3.20;;;0.90;;
18776;SDS011;9517;51.174;4.160;2023-08-08T13:20:09;2.80;;;0.97;;
18776;SDS011;9517;51.174;4.160;2023-08-08T13:22:37;4.63;;;1.60;;
18776;SDS011;9517;51.174;4.160;2023-08-08T13:25:05;6.70;;;1.37;;
18776;SDS011;9517;51.174;4.160;2023-08-08T13:27:34;4.13;;;1.07;;
18776;SDS011;9517;51.174;4.160;2023-08-08T13:30:01;4.03;;;1.10;;
18776;SDS011;9517;51.174;4.160;2023-08-08T13:32:29;5.20;;;1.20;;
18776;SDS011;9517;51.174;4.160;2023-08-08T13:34:56;9.50;;;1.50;;
18776;SDS011;9517;51.174;4.160;2023-08-08T13:37:23;5.57;;;1.23;;
18776;SDS011;9517;51.174;4.160;2023-08-08T13:39:50;5.07;;;1.30;;
18776;SDS011;9517;51.174;4.160;2023-08-08T13:42:17;4.17;;;1.27;;
18776;SDS011;9517;51.174;4.160;2023-08-08T13:44:47;2.90;;;1.00;;
18776;SDS011;9517;51.174;4.160;2023-08-08T13:47:14;4.60;;;1.23;;
18776;SDS011;9517;51.174;4.160;2023-08-08T13:49:46;5.53;;;1.47;;
18776;SDS011;9517;51.174;4.160;2023-08-08T13:52:17;2.93;;;0.90;;
18776;SDS011;9517;51.174;4.160;2023-08-08T13:54:44;6.80;;;1.23;;
18776;SDS011;9517;51.174;4.160;2023-08-08T13:57:11;3.00;;;0.97;;
18776;SDS011;9517;51.174;4.160;2023-08-08T13:59:38;4.47;;;1.30;;
18776;SDS011;9517;51.174;4.160;2023-08-08T14:02:07;2.57;;;1.10;;
18776;SDS011;9517;51.174;4.160;2023-08-08T14:04:34;3.83;;;1.17;;
18776;SDS011;9517;51.174;4.160;2023-08-08T14:07:04;3.43;;;1.30;;
18776;SDS011;9517;51.174;4.160;2023-08-08T14:09:32;5.23;;;1.47;;
18776;SDS011;9517;51.174;4.160;2023-08-08T14:11:59;6.50;;;1.37;;
18776;SDS011;9517;51.174;4.160;2023-08-08T14:14:26;4.97;;;1.20;;
18776;SDS011;9517;51.174;4.160;2023-08-08T14:16:53;5.33;;;1.13;;
18776;SDS011;9517;51.174;4.160;2023-08-08T14:19:22;3.23;;;1.00;;
18776;SDS011;9517;51.174;4.160;2023-08-08T14:21:49;4.10;;;1.23;;
18776;SDS011;9517;51.174;4.160;2023-08-08T14:24:16;3.97;;;1.00;;
18776;SDS011;9517;51.174;4.160;2023-08-08T14:26:43;4.20;;;0.90;;
18776;SDS011;9517;51.174;4.160;2023-08-08T14:29:10;3.20;;;1.00;;
18776;SDS011;9517;51.174;4.160;2023-08-08T14:31:38;3.70;;;1.03;;
18776;SDS011;9517;51.174;4.160;2023-08-08T14:34:05;5.20;;;1.00;;
18776;SDS011;9517;51.174;4.160;2023-08-08T14:36:34;5.30;;;0.97;;
18776;SDS011;9517;51.174;4.160;2023-08-08T14:39:01;4.63;;;1.30;;
18776;SDS011;9517;51.174;4.160;2023-08-08T14:41:28;4.07;;;1.37;;
18776;SDS011;9517;51.174;4.160;2023-08-08T14:43:55;3.83;;;1.00;;
18776;SDS011;9517;51.174;4.160;2023-08-08T14:46:22;5.60;;;1.20;;
18776;SDS011;9517;51.174;4.160;2023-08-08T14:48:49;4.53;;;1.40;;
18776;SDS011;9517;51.174;4.160;2023-08-08T14:51:16;4.33;;;1.30;;
18776;SDS011;9517;51.174;4.160;2023-08-08T14:53:46;4.23;;;1.00;;
18776;SDS011;9517;51.174;4.160;2023-08-08T14:56:13;5.30;;;1.20;;
18776;SDS011;9517;51.174;4.160;2023-08-08T14:58:40;3.30;;;1.10;;